Time;durP1;ratioP1;P1;durP2;ratioP2;P2;SDS_P1;SDS_P2;PMS_P1;PMS_P2;Temp;Humidity;BMP_temperature;BMP_pressure;BME280_temperature;BME280_humidity;BME280_pressure;Samples;Min_cycle;Max_cycle;Signal;HPM_P1;HPM_P2
2022/07/18 00:00:33;;;;;;;2.87;1.80;;;;;;;24.49;35.83;99958.88;5052737;28;20192;-72
2022/07/18 00:03:00;;;;;;;1.97;1.77;;;;;;;24.42;36.16;99963.78;5052184;28;20193;-72
2022/07/18 00:05:26;;;;;;;2.77;2.03;;;;;;;24.32;36.43;99961.09;5051531;28;20196;-71
2022/07/18 00:07:53;;;;;;;1.70;1.60;;;;;;;24.40;35.95;99965.97;5051835;28;20192;-72
2022/07/18 00:10:20;;;;;;;2.73;1.90;;;;;;;24.32;35.81;99973.84;5052186;28;20204;-71
2022/07/18 00:12:47;;;;;;;2.50;1.90;;;;;;;24.23;35.78;99976.31;5051816;28;20667;-71
2022/07/18 00:15:14;;;;;;;3.97;1.60;;;;;;;24.05;35.97;99981.50;5052943;28;20253;-71
2022/07/18 00:17:42;;;;;;;2.27;1.73;;;;;;;23.82;35.88;99974.66;5052088;28;20195;-71
2022/07/18 00:20:11;;;;;;;3.20;1.60;;;;;;;23.82;36.55;99974.66;5051910;28;20653;-71
2022/07/18 00:22:38;;;;;;;2.83;1.70;;;;;;;23.80;35.84;99976.81;5052039;28;20192;-72
2022/07/18 00:25:05;;;;;;;1.53;1.43;;;;;;;23.80;35.22;99976.81;5052806;28;20194;-71
2022/07/18 00:27:32;;;;;;;4.50;1.47;;;;;;;23.91;35.02;99980.38;5051653;28;20257;-71
2022/07/18 00:29:59;;;;;;;2.03;1.63;;;;;;;23.80;34.74;99984.97;5052222;28;20212;-71
2022/07/18 00:32:25;;;;;;;4.73;1.80;;;;;;;23.91;36.25;99983.94;5051598;28;20637;-71
2022/07/18 00:34:53;;;;;;;2.23;1.63;;;;;;;24.26;33.89;99973.03;5051638;28;20191;-72
2022/07/18 00:37:20;;;;;;;1.53;1.37;;;;;;;24.29;32.95;99988.78;5051884;28;20199;-71
2022/07/18 00:39:47;;;;;;;1.80;1.70;;;;;;;24.10;33.02;99993.13;5051525;28;20219;-69
2022/07/18 00:42:14;;;;;;;3.53;1.40;;;;;;;24.14;32.56;99988.78;5051396;28;20793;-69
2022/07/18 00:44:40;;;;;;;2.70;1.50;;;;;;;23.75;32.64;99984.97;5052189;28;20254;-69
2022/07/18 00:47:07;;;;;;;1.20;1.20;;;;;;;23.72;32.84;99990.09;5051779;28;20199;-68
2022/07/18 00:49:34;;;;;;;2.00;1.30;;;;;;;23.77;32.52;99988.22;5051784;28;20261;-69
2022/07/18 00:52:02;;;;;;;1.57;1.47;;;;;;;23.73;32.23;99984.41;5052315;28;20191;-68
2022/07/18 00:54:31;;;;;;;1.43;1.33;;;;;;;23.45;32.63;99984.09;5051777;28;20626;-69
2022/07/18 00:56:58;;;;;;;1.20;1.20;;;;;;;23.49;32.40;99991.41;5051725;28;20222;-69
2022/07/18 01:01:42;;;;;;;4.83;1.60;;;;;;;23.40;32.38;99989.50;5051265;28;20668;-69
2022/07/18 01:02:11;;;;;;;2.53;1.40;;;;;;;23.32;33.12;99992.75;5051376;28;20193;-68
2022/07/18 01:04:38;;;;;;;3.13;1.20;;;;;;;23.29;32.60;99990.53;5051874;28;20198;-68
2022/07/18 01:07:06;;;;;;;2.23;1.37;;;;;;;23.25;32.69;99987.56;5051334;28;20659;-68
2022/07/18 01:09:33;;;;;;;2.13;1.20;;;;;;;23.08;32.60;99994.25;5051279;28;20201;-68
2022/07/18 01:12:01;;;;;;;3.50;1.70;;;;;;;23.11;32.42;99999.13;5052145;28;20608;-68
2022/07/18 01:14:28;;;;;;;4.90;1.33;;;;;;;23.05;32.49;100001.00;5051604;28;20249;-68
2022/07/18 01:16:55;;;;;;;3.67;1.20;;;;;;;23.20;32.24;100000.28;5052254;28;20623;-68
2022/07/18 01:19:22;;;;;;;2.43;1.30;;;;;;;23.22;32.26;100004.34;5054707;28;20226;-68
2022/07/18 01:21:50;;;;;;;1.10;1.10;;;;;;;23.07;32.31;99993.41;5055151;28;20251;-68
2022/07/18 01:24:17;;;;;;;2.43;1.33;;;;;;;23.01;32.84;99993.66;5054769;28;20814;-68
2022/07/18 01:26:43;;;;;;;2.80;1.30;;;;;;;22.98;32.43;99989.59;5054743;28;20198;-68
2022/07/18 01:29:10;;;;;;;1.77;1.20;;;;;;;23.16;32.42;99991.81;5055194;28;20611;-68
2022/07/18 01:31:37;;;;;;;1.20;1.20;;;;;;;23.14;32.33;99999.41;5055239;28;20206;-68
2022/07/18 01:34:04;;;;;;;1.40;1.30;;;;;;;23.12;32.31;99996.13;5055712;28;20234;-68
2022/07/18 01:36:31;;;;;;;1.90;1.40;;;;;;;23.08;32.24;99999.66;5054534;28;20255;-69
2022/07/18 01:38:59;;;;;;;1.63;1.53;;;;;;;23.00;32.47;100002.88;5054756;28;20227;-69
2022/07/18 01:41:25;;;;;;;1.53;1.40;;;;;;;22.81;32.97;99996.25;5054493;28;20194;-68
2022/07/18 01:43:52;;;;;;;2.60;1.30;;;;;;;22.81;33.46;99988.13;5055270;28;20286;-68
2022/07/18 01:46:19;;;;;;;1.30;1.20;;;;;;;22.76;33.65;99997.06;5054464;28;20555;-69
2022/07/18 01:48:46;;;;;;;3.00;1.43;;;;;;;22.73;33.94;99997.59;5054637;28;20197;-69
2022/07/18 01:51:13;;;;;;;1.63;1.53;;;;;;;22.88;34.02;100003.09;5054357;28;20736;-69
2022/07/18 01:53:40;;;;;;;2.00;1.40;;;;;;;23.08;33.73;100005.88;5054223;28;20754;-69
2022/07/18 01:56:09;;;;;;;1.80;1.70;;;;;;;23.20;33.50;100005.72;5054192;28;20693;-69
2022/07/18 01:58:36;;;;;;;1.37;1.37;;;;;;;23.20;34.01;100013.84;5054411;28;20197;-69
2022/07/18 02:01:03;;;;;;;1.77;1.40;;;;;;;23.32;34.34;100006.28;5054427;28;20193;-68
2022/07/18 02:03:29;;;;;;;3.50;1.20;;;;;;;23.57;33.21;100006.34;5055178;28;20195;-68
2022/07/18 02:05:56;;;;;;;1.40;1.30;;;;;;;23.59;33.69;100013.16;5054928;28;20272;-68
2022/07/18 02:08:23;;;;;;;2.60;1.33;;;;;;;23.50;32.77;100012.03;5053985;28;20693;-68
2022/07/18 02:10:50;;;;;;;1.60;1.50;;;;;;;23.51;32.77;100008.25;5053984;28;20206;-69
2022/07/18 02:13:20;;;;;;;2.77;1.33;;;;;;;23.49;33.26;100012.31;5053848;28;20195;-68
2022/07/18 02:15:47;;;;;;;1.57;1.47;;;;;;;23.59;33.05;100013.16;5054144;28;20202;-69
2022/07/18 02:18:13;;;;;;;1.57;1.40;;;;;;;23.56;33.30;100012.88;5053841;28;20658;-69
2022/07/18 02:20:40;;;;;;;1.40;1.30;;;;;;;23.50;33.53;100009.34;5053940;28;20221;-68
2022/07/18 02:23:07;;;;;;;1.70;1.60;;;;;;;23.51;33.63;100018.25;5054040;28;20275;-68
2022/07/18 02:25:34;;;;;;;4.97;1.63;;;;;;;23.47;33.70;100031.56;5053934;28;20194;-69
2022/07/18 02:28:01;;;;;;;1.63;1.53;;;;;;;23.18;34.58;100019.50;5053894;28;20198;-68
2022/07/18 02:30:29;;;;;;;1.50;1.50;;;;;;;23.14;34.40;100026.53;5053748;28;20249;-69
2022/07/18 02:32:56;;;;;;;2.33;1.60;;;;;;;23.14;34.55;100025.69;5053768;28;20195;-68
2022/07/18 02:35:23;;;;;;;1.40;1.30;;;;;;;23.06;34.76;100023.47;5053459;28;20332;-68
2022/07/18 02:37:49;;;;;;;1.47;1.37;;;;;;;22.91;35.20;100020.72;5053473;28;20666;-68
2022/07/18 02:40:16;;;;;;;4.00;1.80;;;;;;;23.04;34.89;100023.78;5054138;28;20221;-68
2022/07/18 02:42:43;;;;;;;2.40;1.63;;;;;;;23.03;35.34;100019.41;5053457;28;20758;-69
2022/07/18 02:45:11;;;;;;;1.83;1.50;;;;;;;22.69;35.83;100029.00;5053819;28;20569;-69
2022/07/18 02:47:39;;;;;;;2.70;1.60;;;;;;;22.48;36.31;100038.06;5053277;28;20681;-69
2022/07/18 02:50:07;;;;;;;2.03;1.60;;;;;;;22.20;36.63;100040.22;5053176;28;20205;-69
2022/07/18 02:52:34;;;;;;;5.17;1.73;;;;;;;21.98;37.34;100034.91;5053118;28;20193;-69
2022/07/18 02:55:01;;;;;;;3.60;1.60;;;;;;;22.05;37.61;100030.09;5053090;28;20196;-68
2022/07/18 02:57:28;;;;;;;1.30;1.20;;;;;;;22.27;37.61;100038.94;5053678;28;20281;-68
2022/07/18 02:59:55;;;;;;;2.03;1.80;;;;;;;22.22;36.92;100038.88;5053231;28;20231;-68
2022/07/18 03:02:21;;;;;;;1.23;1.23;;;;;;;22.33;36.99;100043.31;5053222;28;20193;-68
2022/07/18 03:04:50;;;;;;;3.67;3.27;;;;;;;22.19;36.93;100036.72;5053178;28;20195;-68
2022/07/18 03:07:16;;;;;;;2.73;2.40;;;;;;;22.24;36.74;100036.75;5052885;28;20197;-68
2022/07/18 03:09:43;;;;;;;1.43;1.33;;;;;;;22.18;36.52;100048.63;5052697;28;20251;-69
2022/07/18 03:12:10;;;;;;;3.13;1.60;;;;;;;22.17;36.72;100046.97;5053383;28;20198;-69
2022/07/18 03:14:37;;;;;;;1.40;1.30;;;;;;;22.22;36.67;100043.50;5053346;28;20200;-69
2022/07/18 03:17:04;;;;;;;3.40;1.77;;;;;;;22.19;36.01;100034.00;5052671;28;20246;-69
2022/07/18 03:19:30;;;;;;;2.13;1.50;;;;;;;22.21;36.37;100042.66;5052842;28;20220;-69
2022/07/18 03:21:58;;;;;;;1.63;1.40;;;;;;;22.24;36.76;100041.34;5052822;28;20204;-69
2022/07/18 03:24:25;;;;;;;2.37;2.00;;;;;;;22.33;36.08;100042.50;5032860;28;20200;-69
2022/07/18 03:26:52;;;;;;;4.70;1.50;;;;;;;22.39;35.61;100039.59;5033712;28;20654;-69
2022/07/18 03:29:19;;;;;;;1.83;1.30;;;;;;;22.34;35.47;100046.84;5033016;28;20189;-69
2022/07/18 03:31:45;;;;;;;1.87;1.63;;;;;;;22.45;35.35;100043.13;5032514;28;20682;-69
2022/07/18 03:34:12;;;;;;;4.77;2.20;;;;;;;22.54;34.92;100047.84;5032734;28;20263;-69
2022/07/18 03:36:39;;;;;;;4.43;1.60;;;;;;;22.58;34.65;100038.13;5032467;28;20197;-68
2022/07/18 03:39:12;;;;;;;5.30;1.70;;;;;;;22.64;34.95;100041.69;5032597;28;20197;-69
2022/07/18 03:41:39;;;;;;;3.47;1.53;;;;;;;22.69;34.62;100049.84;5032009;28;20220;-69
2022/07/18 03:44:07;;;;;;;1.40;1.30;;;;;;;22.57;34.34;100047.31;5032371;28;20242;-68
2022/07/18 03:46:34;;;;;;;3.10;1.60;;;;;;;22.54;34.38;100053.25;5032569;28;20260;-69
2022/07/18 03:49:01;;;;;;;1.70;1.57;;;;;;;22.60;34.07;100049.53;5032254;28;20723;-69
2022/07/18 03:51:27;;;;;;;1.57;1.47;;;;;;;22.55;33.86;100049.50;5032522;28;20201;-69
2022/07/18 03:53:54;;;;;;;3.80;1.53;;;;;;;22.59;33.92;100056.03;5032488;28;20201;-69
2022/07/18 03:56:22;;;;;;;1.00;1.00;;;;;;;22.59;33.85;100047.91;5032132;28;20201;-69
2022/07/18 03:58:49;;;;;;;1.60;1.50;;;;;;;22.68;33.87;100059.88;5032014;28;20194;-69
2022/07/18 04:01:16;;;;;;;2.53;1.40;;;;;;;22.83;33.33;100061.84;5032493;28;20221;-69
2022/07/18 04:03:43;;;;;;;1.60;1.50;;;;;;;22.88;33.22;100065.41;5032889;28;20194;-69
2022/07/18 04:06:09;;;;;;;1.30;1.20;;;;;;;23.07;34.19;100063.88;5032165;28;20198;-69
2022/07/18 04:08:36;;;;;;;8.90;1.60;;;;;;;23.17;33.02;100061.25;5032205;28;20194;-68
2022/07/18 04:11:03;;;;;;;5.33;1.80;;;;;;;23.49;32.82;100078.19;5032127;28;20201;-69
2022/07/18 04:13:31;;;;;;;3.30;1.40;;;;;;;24.26;31.29;100078.16;5032374;28;20229;-69
2022/07/18 04:15:58;;;;;;;5.37;1.70;;;;;;;25.35;29.07;100086.47;5032164;28;20255;-68
2022/07/18 04:18:25;;;;;;;4.73;1.90;;;;;;;26.44;27.59;100078.72;5031895;28;20254;-69
2022/07/18 04:20:51;;;;;;;4.60;1.63;;;;;;;27.28;26.64;100079.06;5032060;28;20223;-69
2022/07/18 04:23:19;;;;;;;2.70;1.33;;;;;;;27.60;25.92;100077.25;5032039;28;20236;-68
2022/07/18 04:25:46;;;;;;;1.63;1.53;;;;;;;28.25;25.22;100079.06;5031774;28;20193;-68
2022/07/18 04:28:14;;;;;;;7.60;1.20;;;;;;;28.55;24.84;100084.06;5031773;28;20255;-68
2022/07/18 04:30:44;;;;;;;3.10;1.20;;;;;;;28.73;24.42;100079.66;5032589;28;20263;-68
2022/07/18 04:33:11;;;;;;;3.37;1.30;;;;;;;28.74;24.23;100075.81;5032299;28;20271;-69
2022/07/18 04:35:38;;;;;;;1.83;1.27;;;;;;;29.52;23.84;100086.66;5031513;28;20281;-68
2022/07/18 04:38:07;;;;;;;1.60;1.30;;;;;;;29.51;23.31;100079.56;5032701;28;20227;-68
2022/07/18 04:40:34;;;;;;;2.77;1.10;;;;;;;30.09;22.81;100084.00;5031603;28;20271;-68
2022/07/18 04:43:01;;;;;;;1.53;1.40;;;;;;;30.24;22.54;100091.91;5031920;28;20689;-69
2022/07/18 04:45:28;;;;;;;2.80;1.30;;;;;;;30.97;21.51;100100.50;5032685;28;20201;-68
2022/07/18 04:47:56;;;;;;;5.63;1.43;;;;;;;31.40;21.75;100103.47;5032016;28;20248;-68
2022/07/18 04:50:24;;;;;;;4.30;1.40;;;;;;;31.64;21.21;100104.66;5031821;28;20267;-68
2022/07/18 04:52:51;;;;;;;6.07;1.80;;;;;;;31.73;21.64;100110.19;5033894;28;20288;-69
2022/07/18 04:55:21;;;;;;;2.83;1.37;;;;;;;32.21;20.40;100116.41;5035997;28;20335;-68
2022/07/18 04:57:48;;;;;;;2.00;1.50;;;;;;;32.44;19.85;100121.47;5035881;28;20252;-69
2022/07/18 05:00:17;;;;;;;1.87;1.20;;;;;;;31.88;20.47;100123.47;5036085;28;20283;-69
2022/07/18 05:02:45;;;;;;;1.87;1.60;;;;;;;32.08;20.39;100118.19;5035824;28;20300;-68
2022/07/18 05:05:15;;;;;;;1.80;1.40;;;;;;;33.15;19.86;100136.38;5035446;28;20331;-68
2022/07/18 05:07:43;;;;;;;2.07;1.27;;;;;;;34.00;19.20;100135.22;5036247;28;20193;-68
2022/07/18 05:10:12;;;;;;;8.63;1.80;;;;;;;34.83;18.51;100143.13;5035307;28;20193;-69
2022/07/18 05:12:40;;;;;;;4.15;1.70;;;;;;;35.00;17.96;100147.69;5035041;28;20208;-69
2022/07/18 05:15:09;;;;;;;3.38;1.45;;;;;;;34.30;18.55;100134.00;5035024;28;20201;-69
2022/07/18 05:17:36;;;;;;;7.18;1.50;;;;;;;34.23;18.28;100140.06;5035319;28;20284;-69
2022/07/18 05:20:04;;;;;;;1.98;1.10;;;;;;;34.16;18.69;100141.75;5035019;28;20708;-70
2022/07/18 05:22:33;;;;;;;4.95;1.05;;;;;;;34.30;18.70;100139.53;5036023;28;20279;-69
2022/07/18 05:25:00;;;;;;;3.80;1.13;;;;;;;34.57;18.70;100150.06;5034866;28;20198;-69
2022/07/18 05:27:26;;;;;;;3.72;1.48;;;;;;;35.39;18.23;100141.56;5034845;28;20197;-69
2022/07/18 05:29:53;;;;;;;1.95;1.38;;;;;;;35.00;18.07;100136.63;5035080;28;20193;-69
2022/07/18 05:32:20;;;;;;;2.53;1.42;;;;;;;35.36;18.17;100142.25;5039643;28;20258;-69
2022/07/18 05:34:46;;;;;;;7.25;1.63;;;;;;;35.64;17.61;100146.75;5054863;28;20274;-69
2022/07/18 05:37:13;;;;;;;4.82;1.33;;;;;;;35.79;17.81;100143.31;5054938;28;20615;-69
2022/07/18 05:39:42;;;;;;;1.77;1.50;;;;;;;35.49;17.88;100143.88;5052846;28;20192;-70
2022/07/18 05:42:08;;;;;;;5.53;1.38;;;;;;;35.02;17.93;100150.94;5052523;28;20290;-70
2022/07/18 05:44:35;;;;;;;6.45;1.20;;;;;;;35.18;18.07;100143.56;5052917;28;20185;-70
2022/07/18 05:47:02;;;;;;;2.60;1.30;;;;;;;34.95;18.31;100142.38;5052693;28;20189;-70
2022/07/18 05:49:29;;;;;;;4.88;1.63;;;;;;;34.63;18.17;100138.47;5051660;28;20258;-70
2022/07/18 05:51:56;;;;;;;4.63;1.30;;;;;;;33.86;18.78;100145.69;5052583;28;20270;-73
2022/07/18 05:54:22;;;;;;;2.25;1.67;;;;;;;33.48;19.10;100144.88;5052481;28;20562;-70
2022/07/18 05:56:52;;;;;;;2.77;1.50;;;;;;;33.31;19.50;100140.22;5050667;28;20259;-74
2022/07/18 05:59:20;;;;;;;4.37;1.53;;;;;;;33.37;19.20;100133.44;5052224;28;20207;-72
2022/07/18 06:01:47;;;;;;;4.17;1.70;;;;;;;33.63;19.44;100136.84;5050784;28;20224;-73
2022/07/18 06:04:14;;;;;;;3.97;1.40;;;;;;;33.65;19.38;100136.53;5051381;28;20196;-74
2022/07/18 06:06:41;;;;;;;9.67;1.73;;;;;;;32.90;19.94;100129.00;5050167;28;20270;-72
2022/07/18 06:09:09;;;;;;;4.87;1.57;;;;;;;33.14;19.56;100124.56;5052806;28;20197;-74
2022/07/18 06:11:36;;;;;;;3.17;1.50;;;;;;;32.76;19.68;100118.19;5051236;28;20235;-79
2022/07/18 06:14:04;;;;;;;4.03;1.40;;;;;;;32.72;20.20;100111.72;5051636;28;20695;-76
2022/07/18 06:16:31;;;;;;;4.87;1.40;;;;;;;32.17;20.58;100113.50;5052338;28;20224;-75
2022/07/18 06:18:58;;;;;;;24.53;3.63;;;;;;;31.88;21.37;100104.25;5052009;28;20193;-76
2022/07/18 06:21:25;;;;;;;3.97;1.40;;;;;;;32.28;21.15;100106.53;5050547;28;20220;-74
2022/07/18 06:23:52;;;;;;;5.30;1.67;;;;;;;32.82;20.21;100108.63;5051800;28;20219;-74
2022/07/18 06:26:19;;;;;;;1.20;1.10;;;;;;;32.87;20.04;100113.97;5051763;28;20193;-76
2022/07/18 06:28:46;;;;;;;1.30;1.20;;;;;;;33.16;19.90;100116.78;5051909;28;20664;-73
2022/07/18 06:31:15;;;;;;;2.30;1.20;;;;;;;32.92;19.98;100113.00;5051556;28;20204;-76
2022/07/18 06:33:43;;;;;;;4.23;1.50;;;;;;;32.94;20.05;100114.28;5050936;28;20196;-77
2022/07/18 06:36:11;;;;;;;2.00;1.30;;;;;;;32.72;20.65;100116.41;5050544;28;20193;-72
2022/07/18 06:38:38;;;;;;;20.93;2.83;;;;;;;32.31;20.68;100110.63;5053734;28;20196;-72
2022/07/18 06:41:05;;;;;;;2.13;1.40;;;;;;;32.13;21.00;100108.97;5053191;28;20219;-69
2022/07/18 06:43:32;;;;;;;3.60;1.00;;;;;;;31.99;21.32;100103.63;5053312;28;20236;-74
2022/07/18 06:45:59;;;;;;;3.03;1.37;;;;;;;32.56;21.03;100104.28;5053415;28;20254;-74
2022/07/18 06:48:32;;;;;;;2.17;1.30;;;;;;;32.41;20.89;100118.53;5052779;28;20192;-74
2022/07/18 06:50:59;;;;;;;4.60;1.37;;;;;;;32.36;21.37;100114.03;5053034;28;20200;-75
2022/07/18 06:53:26;;;;;;;6.47;1.20;;;;;;;32.92;20.99;100111.03;5053355;28;20197;-74
2022/07/18 06:55:53;;;;;;;1.43;1.03;;;;;;;33.41;20.21;100117.03;5054081;28;20193;-73
2022/07/18 06:58:19;;;;;;;2.50;1.20;;;;;;;33.43;18.91;100109.25;5053547;28;20211;-73
2022/07/18 07:00:46;;;;;;;5.72;1.27;;;;;;;33.68;18.96;100122.09;5052523;28;20606;-72
2022/07/18 07:03:13;;;;;;;4.93;1.30;;;;;;;33.61;18.79;100113.53;5052798;28;20258;-73
2022/07/18 07:05:41;;;;;;;2.08;1.20;;;;;;;33.63;19.34;100123.06;5052762;28;20254;-73
2022/07/18 07:08:08;;;;;;;1.88;1.38;;;;;;;33.95;19.61;100116.09;5052638;28;20238;-73
2022/07/18 07:10:35;;;;;;;10.43;1.73;;;;;;;34.11;19.57;100108.84;5053062;28;20197;-72
2022/07/18 07:13:02;;;;;;;3.70;1.35;;;;;;;33.56;19.98;100102.69;5052970;28;20204;-73
2022/07/18 07:15:28;;;;;;;4.15;1.67;;;;;;;33.31;20.13;100112.66;5053360;28;20196;-74
2022/07/18 07:17:55;;;;;;;7.90;1.90;;;;;;;33.40;20.34;100110.75;5052912;28;20319;-73
2022/07/18 07:20:22;;;;;;;4.95;1.48;;;;;;;34.12;19.70;100105.75;5052481;28;20639;-73
2022/07/18 07:22:52;;;;;;;3.20;1.48;;;;;;;34.13;19.43;100107.34;5052547;28;20738;-73
2022/07/18 07:25:20;;;;;;;1.77;1.33;;;;;;;34.61;19.04;100112.31;5052844;28;20660;-73
2022/07/18 07:27:47;;;;;;;2.70;1.27;;;;;;;34.01;19.09;100110.03;5052434;28;20200;-74
2022/07/18 07:30:16;;;;;;;2.03;1.13;;;;;;;34.20;19.33;100102.09;5052648;28;20192;-73
2022/07/18 07:32:45;;;;;;;1.45;1.35;;;;;;;34.06;19.61;100107.09;5051368;28;20239;-73
2022/07/18 07:35:14;;;;;;;1.33;1.10;;;;;;;34.12;18.85;100099.44;5052599;28;20196;-73
2022/07/18 07:37:43;;;;;;;2.50;1.23;;;;;;;33.89;19.11;100100.91;5053323;28;20189;-74
2022/07/18 07:40:12;;;;;;;3.88;1.60;;;;;;;34.14;19.01;100100.72;5052360;28;20255;-74
2022/07/18 07:42:39;;;;;;;4.53;1.40;;;;;;;34.62;18.93;100103.69;5052229;28;20310;-74
2022/07/18 07:45:07;;;;;;;4.43;1.00;;;;;;;35.02;18.64;100106.72;5052390;28;20258;-73
2022/07/18 07:47:35;;;;;;;4.57;1.20;;;;;;;35.49;18.25;100099.66;5052164;28;20192;-74
2022/07/18 07:50:02;;;;;;;2.28;1.15;;;;;;;35.57;17.30;100104.25;5052037;28;20728;-73
2022/07/18 07:52:29;;;;;;;1.30;1.20;;;;;;;35.27;18.51;100100.88;5052330;28;20200;-74
2022/07/18 07:54:55;;;;;;;3.00;1.15;;;;;;;35.26;17.49;100101.22;5052272;28;20266;-73
2022/07/18 07:57:24;;;;;;;19.52;2.30;;;;;;;35.05;18.06;100111.53;5052257;28;20188;-73
2022/07/18 07:59:51;;;;;;;5.15;1.15;;;;;;;35.42;17.70;100104.94;5051758;28;20246;-73
2022/07/18 08:02:18;;;;;;;3.95;1.30;;;;;;;35.54;17.47;100104.94;5051819;28;20644;-74
2022/07/18 08:04:45;;;;;;;1.15;1.10;;;;;;;35.44;17.12;100103.44;5052314;28;20275;-74
2022/07/18 08:07:12;;;;;;;2.47;1.42;;;;;;;35.48;17.55;100106.34;5052199;28;20193;-74
2022/07/18 08:09:39;;;;;;;4.10;1.55;;;;;;;35.63;17.43;100106.44;5051742;28;20309;-74
2022/07/18 08:12:06;;;;;;;1.58;1.20;;;;;;;35.89;16.64;100108.84;5052164;28;20629;-73
2022/07/18 08:14:37;;;;;;;2.45;1.15;;;;;;;36.13;16.28;100111.56;5051612;28;20280;-74
2022/07/18 08:17:04;;;;;;;3.75;1.30;;;;;;;36.39;16.40;100106.44;5052155;28;20275;-73
2022/07/18 08:19:31;;;;;;;1.23;0.90;;;;;;;36.58;17.03;100109.34;5051883;28;20256;-74
2022/07/18 08:21:58;;;;;;;1.70;1.60;;;;;;;36.59;16.29;100110.97;5052675;28;20216;-74
2022/07/18 08:24:25;;;;;;;5.05;1.52;;;;;;;36.73;16.49;100105.81;5052011;28;20207;-74
2022/07/18 08:26:51;;;;;;;2.67;2.47;;;;;;;36.82;16.59;100110.06;5052159;28;20254;-74
2022/07/18 08:29:18;;;;;;;1.33;1.23;;;;;;;36.27;16.65;100107.28;5055594;28;20192;-74
2022/07/18 08:31:46;;;;;;;1.70;1.00;;;;;;;36.25;16.25;100104.06;5056484;28;20204;-74
2022/07/18 08:34:13;;;;;;;3.50;1.42;;;;;;;36.43;17.02;100101.81;5055575;28;20192;-74
2022/07/18 08:36:40;;;;;;;9.00;1.70;;;;;;;36.49;17.14;100101.19;5056347;28;20216;-75
2022/07/18 08:39:07;;;;;;;2.42;1.33;;;;;;;36.21;16.47;100107.84;5055334;28;20669;-76
2022/07/18 08:41:34;;;;;;;1.20;1.13;;;;;;;35.61;16.45;100099.63;5055379;28;20708;-75
2022/07/18 08:44:01;;;;;;;3.22;1.30;;;;;;;35.96;16.32;100109.06;5056022;28;20231;-75
2022/07/18 08:46:28;;;;;;;1.10;1.10;;;;;;;36.09;15.65;100107.88;5056287;28;20246;-73
2022/07/18 08:48:57;;;;;;;4.60;1.13;;;;;;;36.16;15.54;100113.63;5055773;28;20200;-76
2022/07/18 08:51:23;;;;;;;3.13;1.15;;;;;;;36.45;15.23;100110.53;5055667;28;20258;-73
2022/07/18 08:53:52;;;;;;;2.35;1.02;;;;;;;36.56;15.30;100117.19;5055296;28;20258;-74
2022/07/18 08:56:19;;;;;;;3.22;1.02;;;;;;;36.54;14.94;100114.78;5055286;28;20227;-74
2022/07/18 08:58:45;;;;;;;2.13;1.38;;;;;;;36.51;15.35;100112.72;5055888;28;20196;-71
2022/07/18 09:01:12;;;;;;;3.33;0.98;;;;;;;35.52;16.10;100105.28;5054900;28;20267;-72
2022/07/18 09:03:39;;;;;;;2.53;1.40;;;;;;;35.40;15.81;100102.50;5053396;28;20573;-74
2022/07/18 09:06:09;;;;;;;1.83;1.20;;;;;;;34.87;16.92;100096.34;5053926;28;20196;-74
2022/07/18 09:08:37;;;;;;;1.77;1.20;;;;;;;35.08;16.99;100097.88;5053122;28;20201;-78
2022/07/18 09:11:09;;;;;;;8.20;1.23;;;;;;;35.10;16.00;100097.50;5052373;28;20258;-76
2022/07/18 09:13:42;;;;;;;2.45;1.05;;;;;;;34.03;17.02;100101.44;5054030;28;20279;-74
2022/07/18 09:16:10;;;;;;;3.45;1.35;;;;;;;33.99;17.12;100101.31;5052458;28;20207;-74
2022/07/18 09:18:39;;;;;;;9.90;8.98;;;;;;;34.40;18.39;100092.22;5050705;28;20204;-75
2022/07/18 09:21:11;;;;;;;15.88;14.38;;;;;;;34.40;18.82;100089.47;5047168;28;20676;-75
2022/07/18 09:23:40;;;;;;;4.90;1.30;;;;;;;34.37;17.43;100096.47;5047013;28;20664;-75
2022/07/18 09:26:08;;;;;;;1.67;1.50;;;;;;;33.81;17.99;100093.47;5048530;28;20196;-76
2022/07/18 09:28:49;;;;;;;2.25;1.70;;;;;;;33.57;18.49;100093.28;5048954;28;20199;-74
2022/07/18 09:31:20;;;;;;;4.00;3.63;;;;;;;33.80;18.87;100097.38;5054105;28;20193;-68
2022/07/18 09:33:53;;;;;;;18.38;5.20;;;;;;;34.01;18.81;100087.19;5054972;28;20565;-72
2022/07/18 09:36:22;;;;;;;2.03;1.88;;;;;;;33.73;18.93;100091.56;5049331;28;20192;-75
2022/07/18 09:38:49;;;;;;;1.50;1.40;;;;;;;33.43;19.10;100099.03;5048586;28;20201;-73
2022/07/18 09:41:16;;;;;;;2.28;1.27;;;;;;;33.11;19.09;100116.97;5048022;28;20200;-73
2022/07/18 09:43:43;;;;;;;1.70;1.33;;;;;;;33.20;18.68;100089.41;5050408;28;20225;-72
2022/07/18 09:46:10;;;;;;;1.40;1.30;;;;;;;33.58;18.40;100090.19;5050344;28;20192;-70
2022/07/18 09:49:11;;;;;;;1.50;1.40;;;;;;;33.59;18.62;100086.31;5127746;27;20389;-76
2022/07/18 09:51:38;;;;;;;2.08;1.25;;;;;;;33.51;18.87;100089.91;5128136;28;20246;-75
2022/07/18 09:54:05;;;;;;;2.08;1.13;;;;;;;33.81;18.40;100082.44;5128381;27;20190;-76
2022/07/18 09:56:33;;;;;;;1.50;1.40;;;;;;;33.99;18.42;100082.00;5127715;28;20185;-70
2022/07/18 09:59:00;;;;;;;2.58;1.63;;;;;;;34.00;18.69;100080.06;5128444;28;20204;-71
2022/07/18 10:01:28;;;;;;;1.20;1.20;;;;;;;34.07;18.32;100085.81;5127073;28;20190;-74
2022/07/18 10:03:55;;;;;;;3.95;1.20;;;;;;;33.73;18.19;100088.81;5128110;27;20669;-70
2022/07/18 10:06:23;;;;;;;1.55;1.45;;;;;;;33.96;18.30;100073.59;5127882;28;20661;-70
2022/07/18 10:08:51;;;;;;;1.77;1.13;;;;;;;34.20;18.31;100074.53;5128873;27;20274;-70
2022/07/18 10:11:18;;;;;;;1.60;1.50;;;;;;;33.70;19.01;100067.41;5129859;27;20194;-70
2022/07/18 10:13:45;;;;;;;6.45;1.88;;;;;;;33.91;18.52;100043.44;5128906;27;20201;-71
2022/07/18 10:16:12;;;;;;;2.78;1.70;;;;;;;34.20;18.01;100062.66;5129117;28;20254;-71
2022/07/18 10:18:39;;;;;;;4.07;1.65;;;;;;;33.97;18.36;100072.44;5129761;28;20194;-71
2022/07/18 10:21:09;;;;;;;4.40;1.40;;;;;;;33.94;18.30;100059.34;5128694;28;20197;-72
2022/07/18 10:23:42;;;;;;;1.27;1.20;;;;;;;33.81;18.35;100071.41;5129562;28;20267;-71
2022/07/18 10:26:13;;;;;;;2.40;1.45;;;;;;;33.57;18.53;100060.22;5126969;28;20198;-72
2022/07/18 10:29:11;;;;;;;3.40;1.60;;;;;;;33.42;19.50;100052.50;5128282;28;20342;-70
2022/07/18 10:31:39;;;;;;;2.53;1.70;;;;;;;33.75;19.17;100050.69;5127825;28;20208;-69
2022/07/18 10:34:13;;;;;;;1.63;1.42;;;;;;;33.42;19.47;100063.53;5127830;28;20193;-69
2022/07/18 10:37:02;;;;;;;7.13;1.50;;;;;;;33.52;18.86;100050.22;5128048;28;20255;-67
2022/07/18 10:39:36;;;;;;;1.98;1.55;;;;;;;33.78;19.04;100038.97;5126781;28;20195;-71
2022/07/18 10:42:20;;;;;;;1.70;1.60;;;;;;;34.05;19.36;100049.53;5128226;28;20190;-68
2022/07/18 10:44:48;;;;;;;2.72;1.55;;;;;;;33.80;19.74;100037.50;5128130;27;20186;-68
2022/07/18 10:47:20;;;;;;;3.67;2.40;;;;;;;33.56;19.87;100044.81;5128089;27;20701;-69
2022/07/18 10:50:13;;;;;;;1.83;1.73;;;;;;;33.56;19.81;100044.81;5128250;27;20567;-69
2022/07/18 10:53:00;;;;;;;2.35;1.80;;;;;;;32.92;19.82;100049.66;5091987;27;20205;-71
2022/07/18 10:55:29;;;;;;;9.45;1.60;;;;;;;32.72;19.91;100050.34;5127885;27;20584;-72
2022/07/18 10:58:16;;;;;;;1.92;1.63;;;;;;;32.61;20.21;100043.56;5128519;27;20221;-68
2022/07/18 11:00:47;;;;;;;5.13;2.00;;;;;;;32.93;19.98;100034.75;5114660;28;20211;-73
2022/07/18 11:03:16;;;;;;;5.10;1.83;;;;;;;33.29;19.74;100032.31;5114427;28;20793;-71
2022/07/18 11:05:45;;;;;;;3.03;1.90;;;;;;;33.35;19.93;100027.47;5113698;28;20271;-69
2022/07/18 11:08:24;;;;;;;4.63;2.30;;;;;;;33.54;20.97;100027.81;5113295;28;20226;-69
2022/07/18 11:11:12;;;;;;;2.03;1.83;;;;;;;33.22;20.67;100021.81;5113365;28;20627;-78
2022/07/18 11:13:41;;;;;;;4.63;1.85;;;;;;;33.40;20.97;100017.06;5114322;28;20194;-68
2022/07/18 11:16:13;;;;;;;3.30;1.80;;;;;;;33.07;21.03;100013.31;5114829;28;20592;-68
2022/07/18 11:19:20;;;;;;;8.30;2.07;;;;;;;32.98;21.02;100005.09;5115744;28;20208;-70
2022/07/18 11:21:47;;;;;;;2.90;2.20;;;;;;;33.33;21.00;100003.78;5097241;28;20277;-68
2022/07/18 11:24:14;;;;;;;3.73;1.80;;;;;;;33.26;20.87;100006.25;5115163;28;20220;-68
2022/07/18 11:26:47;;;;;;;3.47;2.30;;;;;;;33.39;21.13;100014.63;5115174;28;20194;-68
2022/07/18 11:29:15;;;;;;;2.08;1.98;;;;;;;33.58;20.63;100007.53;5115099;28;20297;-67
2022/07/18 11:31:47;;;;;;;2.03;1.92;;;;;;;33.77;20.66;100007.88;5114819;28;20247;-69